Time;durP1;ratioP1;P1;durP2;ratioP2;P2;SDS_P1;SDS_P2;PMS_P1;PMS_P2;Temp;Humidity;BMP_temperature;BMP_pressure;BME280_temperature;BME280_humidity;BME280_pressure;Samples;Min_cycle;Max_cycle;Signal;HPM_P1;HPM_P2
2022/10/18 00:00:35;;;;;;;21.90;13.73;;;13.40;99.90;;;;;;4955753;28;20054;-76
2022/10/18 00:03:01;;;;;;;30.45;14.35;;;13.60;99.90;;;;;;4959664;28;20051;-76
2022/10/18 00:05:26;;;;;;;24.42;13.05;;;13.00;99.90;;;;;;4957639;28;20035;-76
2022/10/18 00:07:52;;;;;;;31.27;13.82;;;13.60;99.90;;;;;;4962502;28;20054;-76
2022/10/18 00:10:18;;;;;;;18.52;13.13;;;13.60;99.90;;;;;;4966054;28;20074;-76
2022/10/18 00:12:43;;;;;;;26.52;15.27;;;13.50;99.90;;;;;;4957765;28;20035;-76
2022/10/18 00:15:10;;;;;;;29.05;14.50;;;13.10;99.90;;;;;;4967097;28;20120;-74
2022/10/18 00:17:37;;;;;;;32.33;15.73;;;13.60;99.90;;;;;;4963966;28;20294;-74
2022/10/18 00:20:04;;;;;;;44.67;16.92;;;13.00;99.90;;;;;;4961213;28;20043;-75
2022/10/18 00:22:29;;;;;;;24.23;14.18;;;13.00;99.90;;;;;;4967799;28;20051;-75
2022/10/18 00:24:55;;;;;;;24.42;14.98;;;12.90;99.90;;;;;;4953527;28;20046;-75
2022/10/18 00:27:21;;;;;;;40.88;17.02;;;13.30;99.90;;;;;;4958406;28;20372;-75
2022/10/18 00:29:46;;;;;;;25.45;13.43;;;13.40;99.90;;;;;;4958375;28;20482;-75
2022/10/18 00:32:12;;;;;;;25.35;14.30;;;13.40;99.90;;;;;;4959139;28;20407;-75
2022/10/18 00:34:39;;;;;;;28.33;14.60;;;12.90;99.90;;;;;;4954449;28;20050;-75
2022/10/18 00:37:05;;;;;;;29.83;15.98;;;13.30;99.90;;;;;;4955149;28;20061;-75
2022/10/18 00:39:31;;;;;;;24.95;14.63;;;12.80;99.90;;;;;;4959878;28;20053;-75
2022/10/18 00:41:57;;;;;;;27.95;15.07;;;13.00;99.90;;;;;;4953533;28;20499;-75
2022/10/18 00:44:25;;;;;;;30.63;13.73;;;13.30;99.90;;;;;;4967899;28;20047;-75
2022/10/18 00:46:57;;;;;;;24.05;14.15;;;13.40;99.90;;;;;;4949339;28;20051;-76
2022/10/18 00:49:39;;;;;;;24.48;14.68;;;12.80;99.90;;;;;;4958370;28;20066;-75
2022/10/18 00:52:10;;;;;;;40.05;15.52;;;13.30;99.90;;;;;;4953793;28;20106;-75
2022/10/18 00:54:39;;;;;;;23.15;15.95;;;13.40;99.90;;;;;;4962808;28;20574;-75
2022/10/18 00:57:05;;;;;;;29.27;14.60;;;13.20;99.90;;;;;;4962830;28;20049;-75
2022/10/18 00:59:32;;;;;;;46.92;16.58;;;13.40;99.90;;;;;;4967073;28;20049;-75
2022/10/18 01:01:58;;;;;;;60.33;20.55;;;12.90;99.90;;;;;;4961407;28;20074;-75
2022/10/18 01:04:24;;;;;;;27.63;15.73;;;13.30;99.90;;;;;;4964780;28;20128;-75
2022/10/18 01:07:29;;;;;;;35.60;16.80;;;13.40;99.90;;;;;;4955179;28;20607;-74
2022/10/18 01:12:51;;;;;;;50.30;17.70;;;13.20;99.90;;;;;;4925010;26;20055;-75
2022/10/18 01:15:26;;;;;;;30.08;16.75;;;13.30;99.90;;;;;;4969403;28;20515;-76
2022/10/18 01:18:26;;;;;;;82.38;19.42;;;13.20;99.90;;;;;;4966462;28;20509;-75
2022/10/18 01:21:10;;;;;;;;;;;13.30;99.90;;;;;;4952013;28;20517;-75
2022/10/18 01:23:54;;;;;;;63.70;17.85;;;12.90;99.90;;;;;;4963987;28;20013;-75
2022/10/18 01:26:19;;;;;;;79.15;18.25;;;12.60;99.90;;;;;;4969619;28;20488;-75
2022/10/18 01:28:45;;;;;;;65.80;18.38;;;13.00;99.90;;;;;;4967129;28;20039;-76
2022/10/18 01:31:41;;;;;;;91.35;19.00;;;12.90;99.90;;;;;;4969162;28;20045;-76
2022/10/18 01:34:09;;;;;;;53.10;18.33;;;12.90;99.90;;;;;;4950002;29;20090;-76
2022/10/18 01:36:42;;;;;;;94.28;20.45;;;13.20;99.90;;;;;;4965447;28;20047;-76
2022/10/18 01:39:13;;;;;;;50.60;17.25;;;13.20;99.90;;;;;;4970515;28;20043;-76
2022/10/18 01:41:41;;;;;;;70.90;19.20;;;13.30;99.90;;;;;;4969491;28;20122;-75
2022/10/18 01:44:11;;;;;;;94.75;19.40;;;12.90;99.90;;;;;;4969910;28;20043;-76
2022/10/18 01:46:38;;;;;;;132.55;20.88;;;13.00;99.90;;;;;;4967510;28;20102;-77
2022/10/18 01:49:04;;;;;;;68.75;17.15;;;12.70;99.90;;;;;;4968571;28;20050;-76
2022/10/18 01:51:31;;;;;;;127.15;20.27;;;13.20;99.90;;;;;;4963013;28;20046;-76
2022/10/18 01:53:57;;;;;;;119.93;21.25;;;13.00;99.90;;;;;;4963800;28;20039;-76
2022/10/18 01:56:41;;;;;;;81.18;18.98;;;13.20;99.90;;;;;;4969683;28;20597;-76
2022/10/18 01:59:39;;;;;;;112.47;20.52;;;13.10;99.90;;;;;;4967777;28;20051;-76
2022/10/18 02:02:32;;;;;;;71.60;16.63;;;13.20;99.90;;;;;;4969440;28;20043;-76
2022/10/18 02:05:16;;;;;;;30.80;13.55;;;13.00;99.90;;;;;;4959584;28;20090;-75
2022/10/18 02:07:56;;;;;;;109.55;18.27;;;13.00;99.90;;;;;;4968636;28;20071;-76
2022/10/18 02:10:42;;;;;;;68.70;16.63;;;13.20;99.90;;;;;;4968751;28;20046;-75
2022/10/18 02:13:11;;;;;;;129.70;18.15;;;13.20;99.90;;;;;;4969826;28;20502;-76
2022/10/18 02:15:41;;;;;;;68.23;17.13;;;13.20;99.90;;;;;;4969488;28;20038;-76
2022/10/18 02:18:13;;;;;;;85.10;17.95;;;13.20;99.90;;;;;;4962434;28;20038;-76
2022/10/18 02:20:40;;;;;;;105.97;17.80;;;12.70;99.90;;;;;;4963329;28;20062;-74
2022/10/18 02:23:07;;;;;;;114.90;19.85;;;12.70;99.90;;;;;;4971477;28;20042;-74
2022/10/18 02:25:34;;;;;;;122.63;18.90;;;12.70;99.90;;;;;;4970712;28;20074;-76
2022/10/18 02:28:02;;;;;;;122.20;18.42;;;13.10;99.90;;;;;;4973995;28;20030;-76
2022/10/18 02:30:46;;;;;;;128.30;18.38;;;13.20;99.90;;;;;;4971554;28;20043;-76
2022/10/18 02:33:35;;;;;;;123.18;17.17;;;12.80;99.90;;;;;;4965689;28;20457;-78
2022/10/18 02:36:14;;;;;;;178.95;22.17;;;12.70;99.90;;;;;;4970430;28;20050;-76
2022/10/18 02:38:41;;;;;;;150.60;17.52;;;13.10;99.90;;;;;;4963203;28;20065;-76
2022/10/18 02:41:07;;;;;;;171.65;20.95;;;13.10;99.90;;;;;;4968900;28;20170;-76
2022/10/18 02:43:34;;;;;;;120.90;18.02;;;13.00;99.90;;;;;;4972462;28;20072;-76
2022/10/18 02:46:00;;;;;;;170.77;22.08;;;13.00;99.90;;;;;;4972419;28;20134;-76
2022/10/18 02:48:25;;;;;;;126.07;17.98;;;12.80;99.90;;;;;;4966930;28;20078;-75
2022/10/18 02:50:51;;;;;;;246.77;24.80;;;13.00;99.90;;;;;;4963766;28;20073;-75
2022/10/18 02:53:17;;;;;;;215.05;23.45;;;13.10;99.90;;;;;;4971389;28;20146;-76
2022/10/18 02:55:42;;;;;;;130.00;16.88;;;13.10;99.90;;;;;;4973674;28;20378;-77
2022/10/18 02:58:08;;;;;;;112.70;18.50;;;12.70;99.90;;;;;;4972241;28;20054;-76
2022/10/18 03:00:33;;;;;;;169.20;19.33;;;13.10;99.90;;;;;;4969445;28;20102;-76
2022/10/18 03:02:59;;;;;;;163.32;19.83;;;12.60;99.90;;;;;;4970922;28;20058;-76
2022/10/18 03:05:25;;;;;;;152.73;18.88;;;12.60;99.90;;;;;;4965013;28;20047;-74
2022/10/18 03:07:50;;;;;;;122.25;18.83;;;12.70;99.90;;;;;;4974429;28;20041;-76
2022/10/18 03:10:16;;;;;;;144.65;18.90;;;13.10;99.90;;;;;;4972092;28;20457;-76
2022/10/18 03:12:41;;;;;;;171.50;21.77;;;12.60;99.90;;;;;;4968007;28;20055;-77
2022/10/18 03:15:07;;;;;;;106.82;17.50;;;12.70;99.90;;;;;;4970563;28;20471;-74
2022/10/18 03:17:33;;;;;;;114.22;17.20;;;12.60;99.90;;;;;;4966556;28;20046;-75
2022/10/18 03:19:59;;;;;;;160.02;19.48;;;13.00;99.90;;;;;;4966572;28;20312;-75
2022/10/18 03:22:26;;;;;;;100.13;15.23;;;13.00;99.90;;;;;;4971087;28;20043;-75
2022/10/18 03:24:52;;;;;;;122.82;16.05;;;12.80;99.90;;;;;;4969531;28;20051;-75
2022/10/18 03:27:18;;;;;;;75.40;13.93;;;12.50;99.90;;;;;;4965948;28;20429;-75
2022/10/18 03:29:44;;;;;;;77.38;14.95;;;12.60;99.90;;;;;;4966091;28;20039;-75
2022/10/18 03:32:09;;;;;;;73.70;14.00;;;13.00;99.90;;;;;;4965426;28;20158;-75
2022/10/18 03:34:35;;;;;;;87.55;14.73;;;12.40;99.90;;;;;;4965476;28;20572;-74
2022/10/18 03:37:00;;;;;;;137.70;19.38;;;12.40;99.90;;;;;;4967250;28;20050;-75
2022/10/18 03:39:26;;;;;;;65.20;14.07;;;12.90;99.90;;;;;;4968337;28;20061;-75
2022/10/18 03:41:52;;;;;;;97.22;17.33;;;12.80;99.90;;;;;;4968862;28;20081;-74
2022/10/18 03:44:17;;;;;;;44.97;14.95;;;12.90;99.90;;;;;;4967396;28;20058;-74
2022/10/18 03:46:43;;;;;;;40.42;14.13;;;12.40;99.90;;;;;;4967647;28;20085;-76
2022/10/18 03:49:09;;;;;;;99.85;16.85;;;12.80;99.90;;;;;;4966841;28;20039;-74
2022/10/18 03:51:35;;;;;;;60.88;14.27;;;12.90;99.90;;;;;;4966252;28;20053;-74
2022/10/18 03:54:00;;;;;;;58.80;14.77;;;12.40;99.90;;;;;;4966047;28;20039;-74
2022/10/18 03:56:26;;;;;;;90.93;16.70;;;12.40;99.90;;;;;;4967642;28;20537;-74
2022/10/18 03:58:52;;;;;;;53.92;13.90;;;12.60;99.90;;;;;;4972992;28;20397;-74
2022/10/18 04:01:17;;;;;;;62.75;17.02;;;12.40;99.90;;;;;;4970905;28;20436;-74
2022/10/18 04:03:43;;;;;;;118.97;23.17;;;12.40;99.90;;;;;;4971277;28;20432;-74
2022/10/18 04:06:09;;;;;;;103.10;20.77;;;12.90;99.90;;;;;;4966292;28;20787;-74
2022/10/18 04:08:35;;;;;;;118.23;21.13;;;13.00;99.90;;;;;;4957708;28;20778;-74
2022/10/18 04:11:07;;;;;;;134.13;22.83;;;12.80;99.90;;;;;;4966849;28;20447;-74
2022/10/18 04:13:33;;;;;;;101.50;19.98;;;12.50;99.90;;;;;;4971203;28;20949;-74
2022/10/18 04:15:59;;;;;;;123.83;20.47;;;13.00;99.90;;;;;;4963350;28;20442;-74
2022/10/18 04:18:25;;;;;;;166.60;24.37;;;13.10;99.90;;;;;;4975333;28;20411;-74
2022/10/18 04:20:50;;;;;;;182.43;23.90;;;12.90;99.90;;;;;;4966790;28;20480;-73
2022/10/18 04:23:16;;;;;;;201.45;24.80;;;12.90;99.90;;;;;;4966688;28;20482;-74
2022/10/18 04:25:42;;;;;;;145.05;19.33;;;12.70;99.90;;;;;;4973700;28;20436;-75
2022/10/18 04:28:07;;;;;;;182.10;20.17;;;13.10;99.90;;;;;;4962077;28;20428;-74
2022/10/18 04:30:33;;;;;;;184.00;20.03;;;12.80;99.90;;;;;;4970946;28;20791;-74
2022/10/18 04:32:58;;;;;;;240.15;22.02;;;12.90;99.90;;;;;;4953495;28;20439;-74
2022/10/18 04:35:24;;;;;;;221.27;22.60;;;13.10;99.90;;;;;;4969949;28;20500;-74
2022/10/18 04:37:50;;;;;;;197.45;19.15;;;13.10;99.90;;;;;;4968189;28;20416;-74
2022/10/18 04:40:16;;;;;;;272.02;22.83;;;13.00;99.90;;;;;;4972236;28;20418;-74
2022/10/18 04:42:42;;;;;;;188.02;17.63;;;13.00;99.90;;;;;;4972534;28;20412;-75
2022/10/18 04:45:08;;;;;;;234.50;19.98;;;12.60;99.90;;;;;;4971516;28;20428;-74
2022/10/18 04:47:33;;;;;;;212.82;18.40;;;13.10;99.90;;;;;;4967131;28;20426;-75
2022/10/18 04:49:59;;;;;;;230.30;18.73;;;12.70;99.90;;;;;;4962012;28;20795;-74
2022/10/18 04:52:24;;;;;;;269.97;22.67;;;12.40;99.90;;;;;;4961377;28;20912;-75
2022/10/18 04:54:50;;;;;;;271.83;23.17;;;12.50;99.90;;;;;;4956195;28;20464;-75
2022/10/18 04:57:16;;;;;;;205.02;17.15;;;13.00;99.90;;;;;;4966776;28;20441;-75
2022/10/18 04:59:42;;;;;;;235.52;19.92;;;12.60;99.90;;;;;;4963165;28;20434;-76
2022/10/18 05:02:07;;;;;;;355.35;27.05;;;12.80;99.90;;;;;;4970760;28;20431;-74
2022/10/18 05:04:33;;;;;;;217.27;17.70;;;12.50;99.90;;;;;;4969207;28;20768;-74
2022/10/18 05:06:59;;;;;;;228.67;16.47;;;12.90;99.90;;;;;;4967976;28;20458;-75
2022/10/18 05:09:24;;;;;;;317.67;23.97;;;12.80;99.90;;;;;;4970545;28;20475;-74
2022/10/18 05:11:50;;;;;;;300.83;21.23;;;12.60;99.90;;;;;;4965955;28;20794;-74
2022/10/18 05:14:16;;;;;;;226.73;18.60;;;12.30;99.90;;;;;;4968781;28;20417;-74
2022/10/18 05:16:41;;;;;;;141.63;13.70;;;12.20;99.90;;;;;;4969177;28;20447;-76
2022/10/18 05:19:08;;;;;;;192.55;15.27;;;12.50;99.90;;;;;;4960713;28;20428;-74
2022/10/18 05:21:34;;;;;;;147.73;12.07;;;12.30;99.90;;;;;;4967471;28;20437;-74
2022/10/18 05:24:00;;;;;;;296.52;22.65;;;12.70;99.90;;;;;;4968927;28;20485;-74
2022/10/18 05:26:26;;;;;;;202.75;18.27;;;12.50;99.90;;;;;;4968836;28;20914;-74
2022/10/18 05:28:51;;;;;;;133.68;12.18;;;12.10;99.90;;;;;;4969760;28;20773;-74
2022/10/18 05:31:17;;;;;;;158.03;17.13;;;12.40;99.90;;;;;;4969029;28;20424;-75
2022/10/18 05:33:43;;;;;;;113.83;12.37;;;12.30;99.90;;;;;;4972133;28;20441;-75
2022/10/18 05:36:09;;;;;;;146.02;14.68;;;12.10;99.90;;;;;;4969423;28;20443;-74
2022/10/18 05:38:38;;;;;;;126.20;12.32;;;12.10;99.90;;;;;;4959193;28;20511;-74
2022/10/18 05:41:04;;;;;;;115.80;13.80;;;11.90;99.90;;;;;;4969257;28;21002;-74
2022/10/18 05:43:30;;;;;;;67.32;9.75;;;11.90;99.90;;;;;;4969708;28;20915;-75
2022/10/18 05:45:55;;;;;;;91.07;9.93;;;11.90;99.90;;;;;;4967313;28;20436;-74
2022/10/18 05:48:21;;;;;;;140.70;12.85;;;11.90;99.90;;;;;;4969475;28;20790;-74
2022/10/18 05:50:47;;;;;;;238.67;15.47;;;12.20;99.90;;;;;;4969092;28;20842;-74
2022/10/18 05:53:12;;;;;;;89.57;8.80;;;12.10;99.90;;;;;;4969665;28;20455;-75
2022/10/18 05:55:38;;;;;;;268.90;19.83;;;12.00;99.90;;;;;;4963319;28;20841;-74
2022/10/18 05:58:04;;;;;;;144.60;10.27;;;11.90;99.90;;;;;;4969067;28;20432;-74
2022/10/18 06:00:29;;;;;;;137.45;10.07;;;11.80;99.90;;;;;;4968091;28;20436;-74
2022/10/18 06:02:55;;;;;;;181.15;13.38;;;11.80;99.90;;;;;;4968896;28;20840;-74
2022/10/18 06:05:21;;;;;;;104.95;10.45;;;11.80;99.90;;;;;;4960024;28;20418;-74
2022/10/18 06:07:46;;;;;;;172.43;12.87;;;11.50;99.90;;;;;;4968415;28;20431;-74
2022/10/18 06:10:12;;;;;;;81.40;9.13;;;11.70;99.90;;;;;;4966483;28;20454;-75
2022/10/18 06:12:38;;;;;;;97.47;9.50;;;11.90;99.90;;;;;;4968540;28;20428;-74
2022/10/18 06:15:04;;;;;;;163.03;12.53;;;11.80;99.90;;;;;;4966846;28;20444;-74
2022/10/18 06:17:30;;;;;;;241.05;14.63;;;11.70;99.90;;;;;;4964650;28;20424;-74
2022/10/18 06:19:56;;;;;;;261.10;13.87;;;11.40;99.90;;;;;;4968857;28;20834;-74
2022/10/18 06:22:22;;;;;;;227.98;13.25;;;11.20;99.90;;;;;;4967626;28;20424;-74
2022/10/18 06:24:47;;;;;;;254.02;14.25;;;11.50;99.90;;;;;;4969384;28;20791;-74
2022/10/18 06:27:13;;;;;;;284.07;15.33;;;11.60;99.90;;;;;;4953489;28;20545;-75
2022/10/18 06:29:39;;;;;;;215.13;12.97;;;11.50;99.90;;;;;;4968736;28;20432;-74
2022/10/18 06:32:06;;;;;;;169.25;11.32;;;11.10;99.90;;;;;;4967827;28;20907;-74
2022/10/18 06:34:33;;;;;;;166.85;9.90;;;11.30;99.90;;;;;;4955566;28;20428;-75
2022/10/18 06:36:59;;;;;;;259.48;14.18;;;11.30;99.90;;;;;;4960877;28;20443;-74
2022/10/18 06:39:25;;;;;;;193.82;9.27;;;11.30;99.90;;;;;;4967666;28;20446;-74
2022/10/18 06:41:51;;;;;;;251.55;14.13;;;11.20;99.90;;;;;;4966702;28;20437;-74
2022/10/18 06:44:17;;;;;;;133.98;9.55;;;10.80;99.90;;;;;;4967122;28;20451;-75
2022/10/18 06:46:44;;;;;;;117.23;7.70;;;11.00;99.90;;;;;;4968857;28;20834;-74
2022/10/18 06:49:11;;;;;;;101.50;6.65;;;11.00;99.90;;;;;;4968127;28;20543;-74
2022/10/18 06:51:36;;;;;;;62.85;7.00;;;10.70;99.90;;;;;;4966827;28;20522;-73
2022/10/18 06:54:02;;;;;;;73.15;5.38;;;11.10;99.90;;;;;;4968870;28;20852;-74
2022/10/18 06:56:29;;;;;;;125.97;8.18;;;10.70;99.90;;;;;;4960957;28;20783;-73
2022/10/18 06:58:54;;;;;;;127.50;8.50;;;10.80;99.90;;;;;;4968905;28;20435;-73
2022/10/18 07:01:21;;;;;;;126.23;7.93;;;11.10;99.90;;;;;;4968523;28;20420;-73
2022/10/18 07:03:48;;;;;;;80.05;7.75;;;11.10;99.90;;;;;;4967619;28;20423;-73
2022/10/18 07:06:17;;;;;;;114.72;7.10;;;11.00;99.90;;;;;;4966876;28;20944;-74
2022/10/18 07:08:43;;;;;;;104.35;6.75;;;10.90;99.90;;;;;;4962280;28;20416;-74
2022/10/18 07:11:14;;;;;;;155.93;8.90;;;11.00;99.90;;;;;;4971224;28;20519;-74
2022/10/18 07:13:39;;;;;;;178.05;9.50;;;11.10;99.90;;;;;;4960593;28;20858;-74
2022/10/18 07:16:11;;;;;;;200.43;10.60;;;10.80;99.90;;;;;;4965582;28;20435;-74
2022/10/18 07:18:40;;;;;;;203.63;11.18;;;10.90;99.90;;;;;;4966549;28;20431;-75
2022/10/18 07:21:08;;;;;;;169.88;11.25;;;10.90;99.90;;;;;;4955238;28;20452;-74
2022/10/18 07:23:36;;;;;;;231.60;12.15;;;10.90;99.90;;;;;;4971414;28;20427;-74
2022/10/18 07:26:10;;;;;;;142.93;7.65;;;11.10;99.90;;;;;;4971714;28;20424;-75
2022/10/18 07:28:35;;;;;;;118.78;7.03;;;11.30;99.90;;;;;;4966060;28;20435;-73
2022/10/18 07:31:05;;;;;;;166.05;8.60;;;11.30;99.90;;;;;;4971929;28;20867;-74
2022/10/18 07:33:31;;;;;;;126.22;7.45;;;11.20;99.90;;;;;;4956102;28;21390;-73
2022/10/18 07:36:01;;;;;;;108.68;6.88;;;10.90;99.90;;;;;;4971191;28;20444;-74
2022/10/18 07:38:27;;;;;;;132.67;8.67;;;11.30;99.90;;;;;;4968933;28;20943;-74
2022/10/18 07:40:57;;;;;;;171.80;10.35;;;11.40;99.90;;;;;;4971459;28;20428;-75
2022/10/18 07:43:23;;;;;;;91.27;6.50;;;11.10;99.90;;;;;;4966688;28;20428;-74
2022/10/18 07:45:59;;;;;;;86.63;7.13;;;11.20;99.90;;;;;;4969532;28;20446;-74
2022/10/18 07:48:25;;;;;;;49.50;5.17;;;11.20;99.90;;;;;;4969231;28;20524;-74
2022/10/18 07:50:51;;;;;;;35.63;5.00;;;11.40;99.90;;;;;;4970976;28;20546;-75
2022/10/18 07:53:16;;;;;;;15.30;3.97;;;11.80;99.90;;;;;;4971777;28;20499;-75
2022/10/18 07:55:43;;;;;;;15.60;4.25;;;11.70;99.90;;;;;;4985569;28;20528;-74
2022/10/18 07:58:09;;;;;;;6.10;4.05;;;11.90;99.90;;;;;;4964438;28;20413;-74
2022/10/18 08:00:35;;;;;;;6.93;4.80;;;11.70;99.90;;;;;;4968532;28;20436;-74
2022/10/18 08:03:01;;;;;;;9.15;4.90;;;11.80;99.90;;;;;;4970259;28;20826;-73
2022/10/18 08:05:27;;;;;;;11.77;5.32;;;12.00;99.90;;;;;;4944970;28;20440;-75
2022/10/18 08:07:54;;;;;;;7.80;5.22;;;12.10;99.90;;;;;;4967982;28;20466;-74
2022/10/18 08:10:20;;;;;;;8.32;5.70;;;12.10;99.90;;;;;;4964878;28;20487;-73
2022/10/18 08:12:46;;;;;;;11.48;5.78;;;12.20;99.90;;;;;;4969400;28;20435;-75
2022/10/18 08:15:12;;;;;;;8.90;5.13;;;12.30;99.90;;;;;;4966230;28;20423;-73
2022/10/18 08:17:37;;;;;;;10.52;4.80;;;12.40;99.90;;;;;;4969137;28;20434;-73
2022/10/18 08:20:04;;;;;;;10.02;5.30;;;12.50;99.90;;;;;;4968637;28;20431;-76
2022/10/18 08:22:30;;;;;;;10.23;5.90;;;12.20;99.90;;;;;;4970118;28;20864;-75
2022/10/18 08:24:55;;;;;;;10.93;5.43;;;12.60;99.90;;;;;;4968075;28;20412;-75
2022/10/18 08:27:21;;;;;;;10.27;5.40;;;12.60;99.90;;;;;;4962290;28;20487;-75
2022/10/18 08:29:47;;;;;;;9.68;5.70;;;12.90;99.90;;;;;;4951332;28;20996;-75
2022/10/18 08:32:13;;;;;;;10.20;5.72;;;13.00;99.90;;;;;;4967070;28;20493;-77
2022/10/18 08:34:38;;;;;;;11.65;5.38;;;12.90;99.90;;;;;;4969393;28;20491;-76
2022/10/18 08:37:04;;;;;;;12.13;5.47;;;13.10;99.90;;;;;;4959022;28;20944;-76
2022/10/18 08:39:29;;;;;;;11.40;4.90;;;13.40;99.90;;;;;;4953621;28;20459;-76
2022/10/18 08:42:17;;;;;;;6.50;3.58;;;13.30;99.90;;;;;;4961588;28;20049;-74
2022/10/18 08:44:46;;;;;;;11.15;4.57;;;13.40;99.90;;;;;;4965025;28;20042;-78
2022/10/18 08:47:29;;;;;;;11.43;3.35;;;13.00;99.90;;;;;;4963119;28;20055;-74
2022/10/18 08:50:05;;;;;;;10.77;2.85;;;13.20;99.90;;;;;;4966068;28;20038;-74
2022/10/18 08:53:16;;;;;;;8.90;2.67;;;13.60;99.90;;;;;;4963185;28;20130;-78
2022/10/18 08:55:47;;;;;;;10.68;3.03;;;13.10;99.90;;;;;;4919642;29;20174;-76
2022/10/18 08:58:15;;;;;;;;;;;13.30;99.90;;;;;;4957764;28;20059;-78
2022/10/18 09:00:52;;;;;;;11.65;2.50;;;13.50;99.90;;;;;;4969014;28;19977;-77
2022/10/18 09:03:46;;;;;;;20.10;3.55;;;13.30;99.90;;;;;;4968018;28;20038;-77
2022/10/18 09:06:37;;;;;;;13.52;3.30;;;13.90;99.90;;;;;;4970116;28;20405;-73
2022/10/18 09:09:02;;;;;;;;;;;13.90;99.90;;;;;;4969549;28;20054;-74
2022/10/18 09:11:46;;;;;;;12.82;3.83;;;14.10;99.90;;;;;;4966349;28;19922;-77
2022/10/18 09:14:15;;;;;;;;;;;13.90;99.90;;;;;;4955844;28;20131;-75
2022/10/18 09:16:49;;;;;;;;;;;14.00;99.90;;;;;;4962395;28;20009;-74
2022/10/18 09:19:41;;;;;;;;;;;14.10;99.90;;;;;;4962807;28;20280;-76
2022/10/18 09:22:17;;;;;;;;;;;14.30;99.90;;;;;;4935319;28;19968;-76
2022/10/18 09:24:49;;;;;;;13.38;2.97;;;14.30;99.90;;;;;;4965708;28;19922;-74
2022/10/18 09:27:19;;;;;;;;;;;14.30;99.90;;;;;;4967149;28;20697;-74
2022/10/18 09:29:56;;;;;;;;;;;14.30;99.90;;;;;;4970685;28;19921;-71
2022/10/18 09:32:34;;;;;;;;;;;14.10;99.90;;;;;;4965065;28;19922;-75
2022/10/18 09:35:02;;;;;;;;;;;14.10;99.90;;;;;;4969615;28;20404;-74
2022/10/18 09:37:29;;;;;;;;;;;14.20;99.90;;;;;;4966030;28;20009;-74
2022/10/18 09:40:01;;;;;;;;;;;14.20;99.90;;;;;;4960801;28;19957;-74
2022/10/18 09:42:29;;;;;;;;;;;14.20;99.90;;;;;;4962904;28;19958;-74
2022/10/18 09:44:57;;;;;;;;;;;14.50;99.90;;;;;;4968568;28;19925;-75
2022/10/18 09:47:25;;;;;;;;;;;14.60;99.90;;;;;;4963468;28;19923;-75
2022/10/18 09:49:56;;;;;;;;;;;14.40;99.90;;;;;;4957655;28;19925;-74
2022/10/18 09:52:27;;;;;;;;;;;14.50;99.90;;;;;;4967947;28;19977;-75
2022/10/18 09:55:01;;;;;;;;;;;14.70;99.90;;;;;;4964861;28;20301;-76
2022/10/18 09:57:47;;;;;;;;;;;14.50;99.90;;;;;;4960829;28;19930;-75
2022/10/18 10:00:15;;;;;;;;;;;14.70;99.90;;;;;;4953869;28;19923;-75
2022/10/18 10:02:41;;;;;;;;;;;14.80;99.90;;;;;;4967168;28;20057;-74
2022/10/18 10:05:11;;;;;;;;;;;14.90;99.90;;;;;;4951671;28;19997;-75
2022/10/18 10:07:41;;;;;;;;;;;15.00;99.90;;;;;;4961734;28;19922;-75
2022/10/18 10:10:13;;;;;;;16.45;2.47;;;15.00;99.90;;;;;;4961607;28;19922;-76
2022/10/18 10:12:39;;;;;;;17.95;3.50;;;15.00;99.90;;;;;;4965322;28;20977;-74
2022/10/18 10:15:24;;;;;;;13.02;2.47;;;15.10;99.90;;;;;;4966308;28;20408;-75
2022/10/18 10:18:00;;;;;;;12.82;1.58;;;14.90;99.90;;;;;;4963535;28;20093;-76
2022/10/18 10:20:43;;;;;;;11.15;1.88;;;14.90;99.90;;;;;;4960104;28;20534;-75
2022/10/18 10:23:35;;;;;;;13.75;2.42;;;15.00;99.90;;;;;;4950859;28;20497;-75
2022/10/18 10:26:22;;;;;;;12.20;2.10;;;15.00;99.90;;;;;;4962180;28;20039;-75
2022/10/18 10:28:48;;;;;;;12.32;3.22;;;14.90;99.90;;;;;;4958665;28;20122;-76
2022/10/18 10:31:25;;;;;;;35.72;5.00;;;15.00;99.90;;;;;;4958948;28;20126;-75
2022/10/18 10:34:03;;;;;;;12.95;1.30;;;15.00;99.90;;;;;;4968223;28;20054;-75
2022/10/18 10:36:30;;;;;;;10.95;2.35;;;14.90;99.90;;;;;;4961867;28;20051;-77
2022/10/18 10:39:09;;;;;;;12.68;1.48;;;14.80;99.90;;;;;;4950983;28;20039;-74
2022/10/18 10:41:36;;;;;;;10.90;2.60;;;14.80;99.90;;;;;;4957519;28;20137;-74
2022/10/18 10:44:12;;;;;;;12.02;1.85;;;14.90;99.90;;;;;;4967818;28;20062;-76
2022/10/18 10:46:38;;;;;;;7.28;1.75;;;15.10;99.90;;;;;;4964550;28;20035;-76
2022/10/18 10:49:03;;;;;;;;;;;15.40;99.90;;;;;;4963601;28;20057;-75
2022/10/18 10:51:37;;;;;;;10.15;2.33;;;15.60;99.90;;;;;;4961721;28;19929;-75
2022/10/18 10:54:17;;;;;;;12.95;2.35;;;15.70;99.90;;;;;;4962922;28;20042;-76
2022/10/18 10:57:10;;;;;;;9.13;1.92;;;15.90;99.90;;;;;;4964329;28;20046;-76
2022/10/18 10:59:43;;;;;;;9.38;1.60;;;15.90;99.90;;;;;;4969093;28;20059;-75
2022/10/18 11:02:19;;;;;;;14.48;2.33;;;16.10;99.90;;;;;;4967742;28;20057;-74
2022/10/18 11:04:46;;;;;;;12.25;2.83;;;15.80;99.90;;;;;;4960969;28;20069;-76
2022/10/18 11:07:32;;;;;;;11.15;2.35;;;15.60;99.90;;;;;;4968129;28;20081;-75
2022/10/18 11:10:10;;;;;;;12.88;2.40;;;15.40;99.90;;;;;;4966323;28;20125;-74
2022/10/18 11:12:45;;;;;;;15.13;2.35;;;15.70;99.90;;;;;;4969995;28;20090;-74
2022/10/18 11:15:35;;;;;;;4.72;1.02;;;15.90;99.90;;;;;;4967413;28;20090;-73
2022/10/18 11:18:27;;;;;;;9.75;1.02;;;15.80;99.90;;;;;;4965920;28;20141;-72
2022/10/18 11:21:01;;;;;;;16.08;2.83;;;16.00;99.90;;;;;;4955500;28;20045;-76
2022/10/18 11:23:37;;;;;;;4.05;1.63;;;15.80;99.90;;;;;;4956305;28;20062;-73
2022/10/18 11:26:12;;;;;;;7.30;1.92;;;15.50;99.90;;;;;;4973621;28;20121;-74
2022/10/18 11:29:00;;;;;;;16.45;2.22;;;15.30;99.90;;;;;;4963888;28;20042;-75
2022/10/18 11:31:47;;;;;;;14.57;3.40;;;15.60;99.90;;;;;;4969776;28;20126;-75
2022/10/18 11:34:43;;;;;;;5.68;1.35;;;16.00;99.90;;;;;;4970036;28;20097;-74
2022/10/18 11:37:39;;;;;;;6.47;1.30;;;16.40;99.90;;;;;;4962138;28;20043;-73
2022/10/18 11:40:25;;;;;;;13.00;2.13;;;16.50;99.90;;;;;;4953384;28;20145;-75
2022/10/18 11:42:59;;;;;;;7.60;1.77;;;16.50;99.90;;;;;;4962032;28;20047;-76
2022/10/18 11:45:34;;;;;;;18.83;3.00;;;16.40;99.90;;;;;;4970276;28;20050;-73
2022/10/18 11:48:37;;;;;;;15.52;1.85;;;16.00;99.90;;;;;;4963112;28;20050;-74
2022/10/18 11:51:27;;;;;;;7.97;1.50;;;15.70;99.90;;;;;;4968624;28;20049;-74
2022/10/18 11:54:21;;;;;;;11.02;2.35;;;15.70;99.90;;;;;;4962111;28;20082;-75
2022/10/18 11:56:55;;;;;;;13.70;2.30;;;15.90;99.90;;;;;;4970351;28;20046;-73
2022/10/18 11:59:32;;;;;;;14.82;3.92;;;15.70;99.90;;;;;;4966831;28;20043;-75
2022/10/18 12:02:25;;;;;;;14.00;3.10;;;15.80;99.90;;;;;;4963049;28;20047;-74
2022/10/18 12:04:55;;;;;;;10.57;1.40;;;16.20;99.90;;;;;;4970810;28;20043;-75
2022/10/18 12:07:22;;;;;;;18.33;2.05;;;16.20;99.90;;;;;;4969612;28;20049;-75
2022/10/18 12:09:50;;;;;;;8.80;1.73;;;16.00;99.90;;;;;;4972887;28;20046;-76
2022/10/18 12:12:26;;;;;;;8.27;2.90;;;15.90;99.90;;;;;;4975914;28;20054;-75
2022/10/18 12:14:57;;;;;;;9.95;2.90;;;15.70;99.90;;;;;;4979419;28;20054;-76
2022/10/18 12:17:43;;;;;;;15.15;3.53;;;15.50;99.90;;;;;;4974674;28;20051;-76
2022/10/18 12:20:26;;;;;;;9.68;2.85;;;15.70;99.90;;;;;;4960028;28;20039;-74
2022/10/18 12:23:03;;;;;;;7.63;1.70;;;15.70;99.90;;;;;;4965303;28;20051;-74
2022/10/18 12:25:34;;;;;;;4.97;1.38;;;15.60;99.90;;;;;;4969102;28;20039;-75
2022/10/18 12:28:18;;;;;;;9.07;1.50;;;15.90;99.90;;;;;;4970542;28;20039;-74
2022/10/18 12:31:01;;;;;;;15.65;2.80;;;16.00;99.90;;;;;;4969519;28;20082;-74
2022/10/18 12:33:33;;;;;;;13.20;1.67;;;15.90;99.90;;;;;;4967155;28;20054;-74
2022/10/18 12:36:10;;;;;;;9.82;2.25;;;15.90;99.90;;;;;;4964538;28;20074;-74
2022/10/18 12:38:40;;;;;;;10.68;1.70;;;16.10;99.90;;;;;;4968698;28;20045;-74
2022/10/18 12:41:06;;;;;;;9.80;1.58;;;16.20;99.90;;;;;;4971020;28;20038;-75
2022/10/18 12:43:36;;;;;;;10.05;1.65;;;16.30;99.90;;;;;;4966576;28;20098;-74
2022/10/18 12:46:07;;;;;;;12.68;1.58;;;16.40;99.90;;;;;;4961919;28;20043;-73
2022/10/18 12:48:44;;;;;;;11.90;1.98;;;16.70;99.90;;;;;;4957116;28;20138;-75
2022/10/18 12:51:15;;;;;;;13.38;1.92;;;16.60;99.90;;;;;;4968879;28;20565;-76
2022/10/18 12:53:44;;;;;;;10.02;1.63;;;16.30;99.90;;;;;;4967449;28;20393;-73
2022/10/18 12:56:29;;;;;;;7.07;1.20;;;16.40;99.90;;;;;;4969549;28;20125;-76